createdAt,value
2016-08-30T00:00:37.316Z,0
2016-08-30T00:01:28.385Z,0
2016-08-30T00:02:23.957Z,0
2016-08-30T00:03:21.457Z,0
2016-08-30T00:04:22.313Z,0
2016-08-30T00:05:23.613Z,0
2016-08-30T00:06:21.413Z,0
2016-08-30T00:07:21.449Z,0
2016-08-30T00:08:21.405Z,0
2016-08-30T00:09:21.449Z,0
2016-08-30T00:10:21.522Z,0
2016-08-30T00:11:21.373Z,0
2016-08-30T00:12:21.382Z,0
2016-08-30T00:13:21.416Z,0
2016-08-30T00:14:21.335Z,0
2016-08-30T00:15:21.910Z,0
2016-08-30T00:16:21.382Z,0
2016-08-30T00:17:21.386Z,0
2016-08-30T00:18:21.380Z,0
2016-08-30T00:19:21.419Z,0
2016-08-30T00:20:21.386Z,0
2016-08-30T00:21:21.385Z,0
2016-08-30T00:22:21.366Z,0
2016-08-30T00:23:21.384Z,0
2016-08-30T00:24:21.389Z,0
2016-08-30T00:25:22.535Z,0
2016-08-30T00:26:21.388Z,0
2016-08-30T00:27:21.364Z,0
2016-08-30T00:28:21.388Z,0
2016-08-30T00:29:21.400Z,0
2016-08-30T00:30:23.567Z,0
2016-08-30T00:31:21.381Z,0
2016-08-30T00:32:21.368Z,0
2016-08-30T00:33:21.385Z,0
2016-08-30T00:34:21.362Z,0
2016-08-30T00:35:21.352Z,0
2016-08-30T00:36:21.717Z,0
2016-08-30T00:37:21.426Z,0
2016-08-30T00:38:21.418Z,0
2016-08-30T00:39:21.414Z,0
2016-08-30T00:40:21.417Z,0
2016-08-30T00:41:21.455Z,0
2016-08-30T00:42:21.728Z,0
2016-08-30T00:43:21.601Z,0
2016-08-30T00:44:21.413Z,0
2016-08-30T00:45:21.403Z,0
2016-08-30T00:46:21.383Z,0
2016-08-30T00:47:21.804Z,0
2016-08-30T00:48:21.427Z,0
2016-08-30T00:49:21.430Z,0
2016-08-30T00:50:21.600Z,0
2016-08-30T00:51:21.413Z,0
2016-08-30T00:52:21.424Z,0
2016-08-30T00:53:21.427Z,0
2016-08-30T00:54:24.736Z,0
2016-08-30T00:55:21.710Z,0
2016-08-30T00:56:21.672Z,0
2016-08-30T00:57:21.637Z,0
2016-08-30T00:58:21.687Z,0
2016-08-30T00:59:21.663Z,0
2016-08-30T01:00:22.322Z,0
2016-08-30T01:01:21.737Z,0
2016-08-30T01:02:21.646Z,0
2016-08-30T01:03:21.691Z,0
2016-08-30T01:04:21.658Z,0
2016-08-30T01:05:22.068Z,0
2016-08-30T01:06:21.666Z,0
2016-08-30T01:07:21.712Z,0
2016-08-30T01:08:21.650Z,0
2016-08-30T01:09:21.642Z,0
2016-08-30T01:10:21.725Z,0
2016-08-30T01:11:21.657Z,0
2016-08-30T01:12:21.711Z,0
2016-08-30T01:13:21.717Z,0
2016-08-30T01:14:21.738Z,0
2016-08-30T01:15:21.739Z,0
2016-08-30T01:17:31.567Z,0
2016-08-30T01:18:21.677Z,0
2016-08-30T01:19:21.714Z,0
2016-08-30T01:20:21.731Z,0
2016-08-30T01:21:21.660Z,0
2016-08-30T01:22:21.645Z,0
2016-08-30T01:23:21.738Z,0
2016-08-30T01:24:21.704Z,0
2016-08-30T01:25:21.735Z,0
2016-08-30T01:26:21.695Z,0
2016-08-30T01:27:21.815Z,0
2016-08-30T01:28:21.670Z,0
2016-08-30T01:29:21.691Z,0
2016-08-30T01:30:21.749Z,0
2016-08-30T01:31:21.649Z,0
2016-08-30T01:32:21.732Z,0
2016-08-30T01:33:21.724Z,0
2016-08-30T01:34:21.749Z,0
2016-08-30T01:35:21.698Z,0
2016-08-30T01:36:21.728Z,0
2016-08-30T01:37:21.714Z,0
2016-08-30T01:38:21.720Z,0
2016-08-30T01:39:21.677Z,0
2016-08-30T01:40:21.764Z,0
2016-08-30T01:41:21.803Z,0
2016-08-30T01:42:21.721Z,0
2016-08-30T01:43:21.811Z,0
2016-08-30T01:44:21.713Z,0
2016-08-30T01:45:21.741Z,0
2016-08-30T01:46:21.695Z,0
2016-08-30T01:47:21.717Z,0
2016-08-30T01:48:21.665Z,0
2016-08-30T01:49:21.768Z,0
2016-08-30T01:50:21.728Z,0
2016-08-30T01:51:21.744Z,0
2016-08-30T01:52:21.842Z,0
2016-08-30T01:53:21.727Z,0
2016-08-30T01:54:21.712Z,0
2016-08-30T01:55:21.768Z,0
2016-08-30T01:56:21.747Z,0
2016-08-30T01:57:21.739Z,0
2016-08-30T01:58:21.734Z,0
2016-08-30T01:59:21.797Z,0
2016-08-30T02:00:21.723Z,0
2016-08-30T02:01:21.724Z,0
2016-08-30T02:02:21.769Z,0
2016-08-30T02:03:21.683Z,0
2016-08-30T02:04:21.763Z,0
2016-08-30T02:05:21.715Z,0
2016-08-30T02:06:21.692Z,0
2016-08-30T02:07:21.739Z,0
2016-08-30T02:08:21.648Z,0
2016-08-30T02:09:21.672Z,0
2016-08-30T02:10:21.760Z,0
2016-08-30T02:11:21.767Z,0
2016-08-30T02:12:21.763Z,0
2016-08-30T02:13:21.698Z,0
2016-08-30T02:14:21.814Z,0
2016-08-30T02:15:21.881Z,0
2016-08-30T02:16:21.763Z,0
2016-08-30T02:17:21.734Z,0
2016-08-30T02:18:21.734Z,0
2016-08-30T02:19:21.756Z,0
2016-08-30T02:20:21.958Z,0
2016-08-30T02:21:21.682Z,0
2016-08-30T02:22:21.727Z,0
2016-08-30T02:23:21.780Z,0
2016-08-30T02:24:21.722Z,0
2016-08-30T02:25:21.787Z,0
2016-08-30T02:26:21.722Z,0
2016-08-30T02:27:21.735Z,0
2016-08-30T02:28:21.771Z,0
2016-08-30T02:29:21.813Z,0
2016-08-30T02:30:21.818Z,0
2016-08-30T02:31:21.775Z,0
2016-08-30T02:32:21.797Z,0
2016-08-30T02:35:33.241Z,0
2016-08-30T02:36:21.751Z,0
2016-08-30T02:37:21.459Z,0
2016-08-30T02:38:21.556Z,0
2016-08-30T02:39:21.487Z,0
2016-08-30T02:40:21.468Z,0
2016-08-30T02:41:21.563Z,0
2016-08-30T02:42:21.469Z,0
2016-08-30T02:43:21.484Z,0
2016-08-30T02:44:21.495Z,0
2016-08-30T02:45:21.496Z,0
2016-08-30T02:46:21.467Z,0
2016-08-30T02:47:21.482Z,0
2016-08-30T02:48:21.489Z,0
2016-08-30T02:49:21.483Z,0
2016-08-30T02:50:22.024Z,0
2016-08-30T02:51:21.499Z,0
2016-08-30T02:52:21.482Z,0
2016-08-30T02:53:21.503Z,0
2016-08-30T02:54:21.485Z,0
2016-08-30T02:55:21.480Z,0
2016-08-30T02:56:21.479Z,0
2016-08-30T02:57:21.470Z,0
2016-08-30T02:58:21.480Z,0
2016-08-30T02:59:21.495Z,0
2016-08-30T03:00:21.770Z,0
2016-08-30T03:01:21.469Z,0
2016-08-30T03:02:21.513Z,0
2016-08-30T03:03:21.483Z,0
2016-08-30T03:04:21.504Z,0
2016-08-30T03:05:21.614Z,0
2016-08-30T03:06:21.545Z,0
2016-08-30T03:07:21.526Z,0
2016-08-30T03:08:21.510Z,0
2016-08-30T03:09:21.501Z,0
2016-08-30T03:10:21.531Z,0
2016-08-30T03:11:21.517Z,0
2016-08-30T03:12:21.495Z,0
2016-08-30T03:13:21.514Z,0
2016-08-30T03:14:21.587Z,0
2016-08-30T03:15:22.955Z,0
2016-08-30T03:16:21.521Z,0
2016-08-30T03:17:21.514Z,0
2016-08-30T03:18:21.520Z,0
2016-08-30T03:19:21.499Z,0
2016-08-30T03:20:21.527Z,0
2016-08-30T03:21:21.527Z,0
2016-08-30T03:22:21.504Z,0
2016-08-30T03:23:21.505Z,0
2016-08-30T03:24:21.533Z,0
2016-08-30T03:25:21.532Z,0
2016-08-30T03:26:21.490Z,0
2016-08-30T03:27:21.532Z,0
2016-08-30T03:28:21.486Z,0
2016-08-30T03:29:21.498Z,0
2016-08-30T03:30:21.544Z,0
2016-08-30T03:31:21.512Z,0
2016-08-30T03:32:21.507Z,0
2016-08-30T03:33:21.518Z,0
2016-08-30T03:34:21.516Z,0
2016-08-30T03:35:21.547Z,0
2016-08-30T03:36:21.515Z,0
2016-08-30T03:37:21.515Z,0
2016-08-30T03:38:21.548Z,0
2016-08-30T03:39:21.544Z,0
2016-08-30T03:40:21.621Z,0
2016-08-30T03:41:21.580Z,0
2016-08-30T03:42:21.546Z,0
2016-08-30T03:43:21.610Z,0
2016-08-30T03:44:21.521Z,0
2016-08-30T03:45:21.919Z,0
2016-08-30T03:46:21.534Z,0
2016-08-30T03:47:21.537Z,0
2016-08-30T03:48:21.583Z,0
2016-08-30T03:49:21.540Z,0
2016-08-30T03:50:21.533Z,0
2016-08-30T03:51:21.546Z,0
2016-08-30T03:52:21.569Z,0
2016-08-30T03:53:21.586Z,0
2016-08-30T03:54:21.531Z,0
2016-08-30T03:55:21.550Z,0
2016-08-30T03:56:21.586Z,0
2016-08-30T03:57:21.546Z,0
2016-08-30T03:58:21.537Z,0
2016-08-30T03:59:21.547Z,0
2016-08-30T04:00:21.769Z,0
2016-08-30T04:01:21.546Z,0
2016-08-30T04:02:21.571Z,0
2016-08-30T04:03:21.548Z,0
2016-08-30T04:04:21.532Z,0
2016-08-30T04:05:21.542Z,0
2016-08-30T04:06:21.547Z,0
2016-08-30T04:07:21.539Z,0
2016-08-30T04:08:21.546Z,0
2016-08-30T04:09:21.560Z,0
2016-08-30T04:10:21.537Z,0
2016-08-30T04:11:21.532Z,0
2016-08-30T04:12:21.575Z,0
2016-08-30T04:13:21.552Z,0
2016-08-30T04:14:21.556Z,0
2016-08-30T04:15:21.530Z,0
2016-08-30T04:16:21.564Z,0
2016-08-30T04:17:21.530Z,0
2016-08-30T04:18:22.433Z,0
2016-08-30T04:19:21.535Z,0
2016-08-30T04:20:21.558Z,0
2016-08-30T04:21:21.536Z,0
2016-08-30T04:22:21.571Z,0
2016-08-30T04:23:21.565Z,0
2016-08-30T04:24:21.628Z,0
2016-08-30T04:25:21.625Z,0
2016-08-30T04:26:21.565Z,0
2016-08-30T04:27:21.582Z,0
2016-08-30T04:28:21.591Z,0
2016-08-30T04:29:21.564Z,0
2016-08-30T04:30:21.593Z,0
2016-08-30T04:31:21.598Z,0
2016-08-30T04:32:21.630Z,0
2016-08-30T04:33:21.568Z,0
2016-08-30T04:34:21.711Z,5
2016-08-30T04:35:21.627Z,5
2016-08-30T04:36:21.591Z,5
2016-08-30T04:37:21.594Z,5
2016-08-30T04:38:21.583Z,5
2016-08-30T04:39:21.581Z,5
2016-08-30T04:40:22.244Z,5
2016-08-30T04:41:21.580Z,5
2016-08-30T04:42:21.570Z,5
2016-08-30T04:43:21.577Z,10
2016-08-30T04:44:21.563Z,10
2016-08-30T04:45:21.561Z,10
2016-08-30T04:46:21.596Z,10
2016-08-30T04:47:21.578Z,10
2016-08-30T04:48:21.622Z,10
2016-08-30T04:49:21.618Z,15
2016-08-30T04:50:21.580Z,15
2016-08-30T04:51:21.571Z,15
2016-08-30T04:52:21.568Z,15
2016-08-30T04:53:21.549Z,15
2016-08-30T04:54:21.593Z,15
2016-08-30T04:55:21.849Z,15
2016-08-30T04:56:21.656Z,15
2016-08-30T04:57:21.610Z,20
2016-08-30T04:58:21.598Z,20
2016-08-30T04:59:21.581Z,20
2016-08-30T05:00:21.600Z,20
2016-08-30T05:01:21.581Z,20
2016-08-30T05:02:21.598Z,20
2016-08-30T05:03:21.595Z,25
2016-08-30T05:04:21.613Z,25
2016-08-30T05:05:21.608Z,25
2016-08-30T05:06:21.655Z,25
2016-08-30T05:07:21.593Z,25
2016-08-30T05:08:21.579Z,30
2016-08-30T05:09:21.603Z,30
2016-08-30T05:10:21.708Z,30
2016-08-30T05:11:22.319Z,30
2016-08-30T05:12:21.567Z,35
2016-08-30T05:13:21.610Z,35
2016-08-30T05:14:21.669Z,35
2016-08-30T05:15:21.653Z,35
2016-08-30T05:16:21.608Z,40
2016-08-30T05:17:21.657Z,40
2016-08-30T05:18:21.608Z,40
2016-08-30T05:19:21.595Z,40
2016-08-30T05:20:21.640Z,45
2016-08-30T05:21:21.624Z,45
2016-08-30T05:22:21.594Z,45
2016-08-30T05:23:21.591Z,45
2016-08-30T05:24:21.594Z,50
2016-08-30T05:25:21.632Z,50
2016-08-30T05:26:21.652Z,50
2016-08-30T05:27:21.601Z,55
2016-08-30T05:28:21.599Z,55
2016-08-30T05:29:21.614Z,55
2016-08-30T05:30:21.973Z,55
2016-08-30T05:31:21.583Z,60
2016-08-30T05:32:21.623Z,60
2016-08-30T05:33:21.610Z,60
2016-08-30T05:34:21.623Z,60
2016-08-30T05:35:21.625Z,60
2016-08-30T05:36:21.925Z,65
2016-08-30T05:37:21.654Z,65
2016-08-30T05:38:21.706Z,65
2016-08-30T05:39:21.611Z,65
2016-08-30T05:40:21.776Z,65
2016-08-30T05:41:21.696Z,70
2016-08-30T05:42:21.656Z,70
2016-08-30T05:43:22.090Z,70
2016-08-30T05:44:21.679Z,70
2016-08-30T05:45:29.366Z,70
2016-08-30T05:46:21.655Z,70
2016-08-30T05:47:21.609Z,70
2016-08-30T05:48:21.662Z,75
2016-08-30T05:49:21.642Z,75
2016-08-30T05:50:23.390Z,75
2016-08-30T05:51:21.705Z,75
2016-08-30T05:52:21.612Z,75
2016-08-30T05:53:21.720Z,75
2016-08-30T05:58:26.833Z,80
2016-08-30T05:59:27.543Z,80
2016-08-30T06:00:50.992Z,80
2016-08-30T06:01:49.947Z,85
2016-08-30T06:02:21.883Z,85
2016-08-30T06:03:21.688Z,85
2016-08-30T06:04:21.690Z,85
2016-08-30T06:05:23.381Z,85
2016-08-30T06:06:21.664Z,85
2016-08-30T06:07:22.879Z,85
2016-08-30T06:08:21.728Z,85
2016-08-30T06:09:22.034Z,90
2016-08-30T06:10:46.413Z,90
2016-08-30T06:11:21.680Z,90
2016-08-30T06:12:21.658Z,90
2016-08-30T06:13:21.652Z,90
2016-08-30T06:14:21.672Z,90
2016-08-30T06:15:30.470Z,90
2016-08-30T06:16:21.704Z,90
2016-08-30T06:17:21.701Z,90
2016-08-30T06:18:21.750Z,90
2016-08-30T06:19:22.136Z,90
2016-08-30T06:20:32.608Z,95
2016-08-30T06:21:21.645Z,95
2016-08-30T06:22:21.656Z,95
2016-08-30T06:23:21.642Z,95
2016-08-30T06:24:21.635Z,95
2016-08-30T06:25:21.660Z,95
2016-08-30T06:26:21.688Z,95
2016-08-30T06:27:21.658Z,95
2016-08-30T06:28:21.648Z,100
2016-08-30T06:29:21.703Z,100
2016-08-30T06:30:22.468Z,100
2016-08-30T06:31:21.709Z,100
2016-08-30T06:32:21.690Z,100
2016-08-30T06:33:21.668Z,100
2016-08-30T06:34:21.691Z,100
2016-08-30T06:35:21.710Z,100
2016-08-30T06:36:21.735Z,100
2016-08-30T06:37:21.676Z,100
2016-08-30T06:38:21.721Z,100
2016-08-30T06:39:21.719Z,100
2016-08-30T06:40:21.831Z,100
2016-08-30T06:41:21.720Z,100
2016-08-30T06:42:21.692Z,100
2016-08-30T06:43:21.677Z,100
2016-08-30T06:44:21.633Z,100
2016-08-30T06:45:22.678Z,100
2016-08-30T06:46:21.675Z,105
2016-08-30T06:47:21.650Z,105
2016-08-30T06:48:21.644Z,105
2016-08-30T06:49:21.717Z,105
2016-08-30T06:50:21.687Z,105
2016-08-30T06:51:21.716Z,105
2016-08-30T06:52:21.751Z,105
2016-08-30T06:53:21.662Z,105
2016-08-30T06:54:21.663Z,105
2016-08-30T06:55:21.664Z,105
2016-08-30T06:56:21.662Z,110
2016-08-30T06:57:21.696Z,110
2016-08-30T06:58:21.699Z,110
2016-08-30T06:59:21.711Z,110
2016-08-30T07:00:21.770Z,110
2016-08-30T07:01:21.842Z,110
2016-08-30T07:02:21.675Z,110
2016-08-30T07:03:21.718Z,110
2016-08-30T07:04:21.662Z,110
2016-08-30T07:05:21.737Z,110
2016-08-30T07:06:21.721Z,110
2016-08-30T07:07:22.005Z,110
2016-08-30T07:08:22.293Z,110
2016-08-30T07:09:21.682Z,110
2016-08-30T07:10:21.712Z,115
2016-08-30T07:11:21.693Z,115
2016-08-30T07:12:21.760Z,115
2016-08-30T07:13:21.706Z,115
2016-08-30T07:14:21.751Z,115
2016-08-30T07:15:21.756Z,115
2016-08-30T07:16:21.751Z,115
2016-08-30T07:17:21.741Z,115
2016-08-30T07:18:21.718Z,115
2016-08-30T07:19:21.729Z,115
2016-08-30T07:20:30.119Z,115
2016-08-30T07:21:22.061Z,115
2016-08-30T07:22:21.811Z,115
2016-08-30T07:23:22.133Z,115
2016-08-30T07:24:21.733Z,115
2016-08-30T07:25:22.954Z,120
2016-08-30T07:26:24.271Z,120
2016-08-30T07:27:21.812Z,120
2016-08-30T07:28:21.725Z,120
2016-08-30T07:29:21.678Z,120
2016-08-30T07:30:21.818Z,120
2016-08-30T07:31:21.739Z,120
2016-08-30T07:32:21.696Z,120
2016-08-30T07:33:21.737Z,120
2016-08-30T07:34:21.697Z,120
2016-08-30T07:35:21.729Z,120
2016-08-30T07:36:21.768Z,120
2016-08-30T07:37:21.816Z,120
2016-08-30T07:38:21.708Z,120
2016-08-30T07:39:21.743Z,120
2016-08-30T07:40:21.751Z,120
2016-08-30T07:41:21.799Z,125
2016-08-30T07:42:21.774Z,125
2016-08-30T07:43:21.728Z,125
2016-08-30T07:44:21.820Z,125
2016-08-30T07:45:21.726Z,125
2016-08-30T07:46:21.803Z,125
2016-08-30T07:47:21.970Z,125
2016-08-30T07:48:21.800Z,130
2016-08-30T07:49:21.737Z,130
2016-08-30T07:50:21.732Z,130
2016-08-30T07:51:21.757Z,130
2016-08-30T07:52:21.786Z,130
2016-08-30T07:53:21.722Z,130
2016-08-30T07:54:21.741Z,125
2016-08-30T07:55:22.159Z,130
2016-08-30T07:56:22.926Z,130
2016-08-30T07:57:21.747Z,130
2016-08-30T07:58:21.768Z,130
2016-08-30T07:59:21.862Z,130
2016-08-30T08:00:21.742Z,130
2016-08-30T08:01:21.901Z,130
2016-08-30T08:02:21.749Z,130
2016-08-30T08:03:38.685Z,130
2016-08-30T08:04:21.798Z,130
2016-08-30T08:05:21.851Z,130
2016-08-30T08:06:21.774Z,130
2016-08-30T08:07:22.478Z,130
2016-08-30T08:08:21.929Z,130
2016-08-30T08:09:21.970Z,130
2016-08-30T08:10:22.810Z,130
2016-08-30T08:11:21.998Z,130
2016-08-30T08:12:21.910Z,130
2016-08-30T08:13:22.101Z,130
2016-08-30T08:14:21.747Z,130
2016-08-30T08:15:23.821Z,130
2016-08-30T08:16:22.104Z,130
2016-08-30T08:17:21.805Z,130
2016-08-30T08:18:21.784Z,130
2016-08-30T08:19:21.803Z,130
2016-08-30T08:20:21.791Z,130
2016-08-30T08:21:21.861Z,135
2016-08-30T08:22:21.764Z,130
2016-08-30T08:23:22.314Z,130
2016-08-30T08:24:22.161Z,130
2016-08-30T08:25:22.825Z,130
2016-08-30T08:26:22.490Z,130
2016-08-30T08:30:50.513Z,130
2016-08-30T08:31:50.661Z,130
2016-08-30T08:32:50.151Z,130
2016-08-30T08:33:50.288Z,130
2016-08-30T08:34:50.244Z,130
2016-08-30T08:35:50.381Z,130
2016-08-30T08:36:50.292Z,125
2016-08-30T08:37:50.201Z,125
2016-08-30T08:38:50.183Z,125
2016-08-30T08:39:50.176Z,125
2016-08-30T08:42:08.510Z,125
2016-08-30T08:42:50.235Z,125
2016-08-30T08:43:50.274Z,125
2016-08-30T08:45:15.689Z,125
2016-08-30T08:45:50.675Z,125
2016-08-30T08:46:51.053Z,125
2016-08-30T08:47:51.071Z,125
2016-08-30T08:48:50.308Z,120
2016-08-30T08:49:50.302Z,120
2016-08-30T08:50:50.819Z,120
2016-08-30T08:51:52.194Z,120
2016-08-30T08:52:51.251Z,120
2016-08-30T08:53:50.366Z,120
2016-08-30T08:54:50.285Z,120
2016-08-30T08:55:50.439Z,120
2016-08-30T08:56:50.477Z,120
2016-08-30T08:57:50.301Z,120
2016-08-30T08:58:50.271Z,125
2016-08-30T08:59:51.086Z,120
2016-08-30T09:00:50.761Z,120
2016-08-30T09:01:50.369Z,120
2016-08-30T09:02:50.349Z,125
2016-08-30T09:03:50.329Z,125
2016-08-30T09:04:50.298Z,125
2016-08-30T09:05:50.255Z,125
2016-08-30T09:06:50.285Z,125
2016-08-30T09:07:50.256Z,125
2016-08-30T09:08:50.309Z,125
2016-08-30T09:09:50.362Z,125
2016-08-30T09:10:50.278Z,125
2016-08-30T09:11:50.418Z,125
2016-08-30T09:12:50.455Z,125
2016-08-30T09:13:50.259Z,125
2016-08-30T09:14:50.333Z,125
2016-08-30T09:15:50.202Z,125
2016-08-30T09:16:50.309Z,125
2016-08-30T09:17:50.316Z,125
2016-08-30T09:18:50.612Z,125
2016-08-30T09:19:50.639Z,125
2016-08-30T09:20:50.232Z,125
2016-08-30T09:21:51.496Z,125
2016-08-30T09:22:52.325Z,125
2016-08-30T09:23:50.207Z,125
2016-08-30T09:24:50.215Z,125
2016-08-30T09:25:50.280Z,125
2016-08-30T09:26:50.289Z,125
2016-08-30T09:27:50.251Z,125
2016-08-30T09:28:50.256Z,125
2016-08-30T09:29:50.278Z,125
2016-08-30T09:30:50.335Z,125
2016-08-30T09:31:50.240Z,125
2016-08-30T09:32:50.244Z,125
2016-08-30T09:33:50.239Z,125
2016-08-30T09:34:50.229Z,125
2016-08-30T09:35:50.281Z,125
2016-08-30T09:36:50.243Z,125
2016-08-30T09:37:50.272Z,125
2016-08-30T09:38:50.318Z,125
2016-08-30T09:39:50.259Z,125
2016-08-30T09:40:50.281Z,125
2016-08-30T09:41:50.277Z,125
2016-08-30T09:42:50.232Z,125
2016-08-30T09:43:50.259Z,125
2016-08-30T09:44:50.240Z,125
2016-08-30T09:45:50.275Z,125
2016-08-30T09:46:50.273Z,125
2016-08-30T09:47:50.231Z,125
2016-08-30T09:48:50.235Z,125
2016-08-30T09:49:50.226Z,125
2016-08-30T09:50:50.249Z,125
2016-08-30T09:51:50.313Z,125
2016-08-30T09:52:50.304Z,125
2016-08-30T09:53:50.320Z,125
2016-08-30T09:54:50.245Z,125
2016-08-30T09:55:50.375Z,125
2016-08-30T09:56:50.305Z,125
2016-08-30T09:57:50.379Z,125
2016-08-30T09:58:50.391Z,125
2016-08-30T09:59:50.297Z,125
2016-08-30T10:00:50.318Z,125
2016-08-30T10:01:50.314Z,125
2016-08-30T10:02:50.302Z,125
2016-08-30T10:03:50.424Z,125
2016-08-30T10:04:50.293Z,125
2016-08-30T10:05:50.306Z,125
2016-08-30T10:06:50.342Z,125
2016-08-30T10:07:50.302Z,125
2016-08-30T10:08:50.310Z,125
2016-08-30T10:09:50.377Z,125
2016-08-30T10:10:50.339Z,125
2016-08-30T10:11:50.319Z,125
2016-08-30T10:12:50.275Z,125
2016-08-30T10:13:50.272Z,125
2016-08-30T10:14:50.922Z,125
2016-08-30T10:15:50.356Z,125
2016-08-30T10:16:51.103Z,125
2016-08-30T10:17:51.866Z,130
2016-08-30T10:18:51.786Z,125
2016-08-30T10:19:50.379Z,130
2016-08-30T10:20:50.338Z,130
2016-08-30T10:21:50.580Z,130
2016-08-30T10:22:51.271Z,130
2016-08-30T10:23:50.438Z,130
2016-08-30T10:24:50.483Z,130
2016-08-30T10:25:51.347Z,130
2016-08-30T10:26:51.030Z,130
2016-08-30T10:27:50.657Z,125
2016-08-30T10:28:50.478Z,125
2016-08-30T10:29:50.725Z,125
2016-08-30T10:30:50.271Z,125
2016-08-30T10:31:50.330Z,125
2016-08-30T10:32:50.294Z,125
2016-08-30T10:33:50.485Z,125
2016-08-30T10:34:50.379Z,130
2016-08-30T10:35:50.600Z,130
2016-08-30T10:36:50.416Z,125
2016-08-30T10:37:50.568Z,125
2016-08-30T10:38:50.337Z,125
2016-08-30T10:39:50.435Z,125
2016-08-30T10:40:50.414Z,125
2016-08-30T10:41:50.565Z,125
2016-08-30T10:42:50.571Z,125
2016-08-30T10:43:50.298Z,125
2016-08-30T10:44:52.031Z,125
2016-08-30T10:45:50.283Z,125
2016-08-30T10:46:51.068Z,125
2016-08-30T10:47:51.220Z,125
2016-08-30T10:48:50.345Z,125
2016-08-30T10:49:50.429Z,125
2016-08-30T10:50:50.298Z,125
2016-08-30T10:51:50.413Z,130
2016-08-30T10:52:51.201Z,125
2016-08-30T10:53:50.279Z,125
2016-08-30T10:54:50.446Z,125
2016-08-30T10:55:50.571Z,120
2016-08-30T10:56:50.324Z,120
2016-08-30T10:57:50.331Z,120
2016-08-30T10:58:50.338Z,120
2016-08-30T10:59:50.357Z,125
2016-08-30T11:00:50.699Z,120
2016-08-30T11:01:50.338Z,120
2016-08-30T11:02:50.357Z,110
2016-08-30T11:03:50.739Z,110
2016-08-30T11:04:50.867Z,110
2016-08-30T11:05:50.981Z,110
2016-08-30T11:06:50.305Z,110
2016-08-30T11:07:51.211Z,110
2016-08-30T11:08:50.367Z,110
2016-08-30T11:09:51.012Z,110
2016-08-30T11:10:51.028Z,110
2016-08-30T11:11:50.319Z,110
2016-08-30T11:12:51.394Z,110
2016-08-30T11:13:51.722Z,120
2016-08-30T11:14:50.447Z,120
2016-08-30T11:15:50.701Z,120
2016-08-30T11:16:50.559Z,120
2016-08-30T11:17:50.374Z,120
2016-08-30T11:18:50.369Z,120
2016-08-30T11:19:50.682Z,120
2016-08-30T11:20:50.339Z,120
2016-08-30T11:21:50.415Z,120
2016-08-30T11:22:50.364Z,120
2016-08-30T11:23:50.522Z,120
2016-08-30T11:24:51.752Z,120
2016-08-30T11:25:50.999Z,120
2016-08-30T11:26:51.108Z,120
2016-08-30T11:27:50.340Z,120
2016-08-30T11:28:50.392Z,120
2016-08-30T11:29:50.470Z,120
2016-08-30T11:30:51.063Z,120
2016-08-30T11:31:51.138Z,120
2016-08-30T11:32:50.942Z,120
2016-08-30T11:33:51.404Z,120
2016-08-30T11:34:52.027Z,120
2016-08-30T11:35:51.343Z,120
2016-08-30T11:36:50.418Z,120
2016-08-30T11:37:50.927Z,120
2016-08-30T11:38:52.452Z,120
2016-08-30T11:39:51.077Z,120
2016-08-30T11:40:51.175Z,120
2016-08-30T11:41:50.648Z,125
2016-08-30T11:42:51.021Z,125
2016-08-30T11:43:51.364Z,125
2016-08-30T11:44:51.141Z,125
2016-08-30T11:45:50.417Z,120
2016-08-30T11:46:50.410Z,120
2016-08-30T11:47:53.113Z,115
2016-08-30T11:48:52.244Z,115
2016-08-30T11:49:50.950Z,115
2016-08-30T11:50:51.185Z,115
2016-08-30T11:51:51.062Z,115
2016-08-30T11:52:52.609Z,115
2016-08-30T11:53:50.420Z,115
2016-08-30T11:54:51.473Z,115
2016-08-30T11:55:52.753Z,115
2016-08-30T11:56:51.455Z,115
2016-08-30T11:57:50.494Z,115
2016-08-30T11:58:51.321Z,110
2016-08-30T11:59:50.504Z,110
2016-08-30T12:00:52.965Z,115
2016-08-30T12:01:51.645Z,115
2016-08-30T12:02:50.376Z,115
2016-08-30T12:03:50.447Z,115
2016-08-30T12:04:51.001Z,115
2016-08-30T12:05:51.346Z,115
2016-08-30T12:06:50.418Z,115
2016-08-30T12:07:52.419Z,110
2016-08-30T12:08:50.422Z,110
2016-08-30T12:09:50.404Z,110
2016-08-30T12:10:50.433Z,110
2016-08-30T12:11:51.373Z,110
2016-08-30T12:12:51.320Z,110
2016-08-30T12:13:50.425Z,110
2016-08-30T12:14:51.616Z,110
2016-08-30T12:15:51.127Z,110
2016-08-30T12:16:50.524Z,110
2016-08-30T12:17:50.444Z,110
2016-08-30T12:18:50.451Z,110
2016-08-30T12:19:50.575Z,110
2016-08-30T12:20:50.594Z,110
2016-08-30T12:21:51.333Z,110
2016-08-30T12:22:50.446Z,110
2016-08-30T12:23:50.821Z,110
2016-08-30T12:24:50.474Z,110
2016-08-30T12:25:50.402Z,110
2016-08-30T12:26:50.491Z,110
2016-08-30T12:27:50.424Z,110
2016-08-30T12:28:50.458Z,110
2016-08-30T12:29:50.452Z,110
2016-08-30T12:30:50.433Z,110
2016-08-30T12:31:50.505Z,110
2016-08-30T12:32:50.477Z,110
2016-08-30T12:33:50.475Z,110
2016-08-30T12:34:50.440Z,110
2016-08-30T12:35:51.382Z,110
2016-08-30T12:36:50.422Z,110
2016-08-30T12:37:50.434Z,110
2016-08-30T12:38:50.433Z,110
2016-08-30T12:39:50.489Z,110
2016-08-30T12:40:50.523Z,110
2016-08-30T12:41:50.482Z,110
2016-08-30T12:42:50.469Z,110
2016-08-30T12:43:50.515Z,110
2016-08-30T12:44:50.465Z,110
2016-08-30T12:45:50.470Z,110
2016-08-30T12:46:50.465Z,110
2016-08-30T12:47:50.468Z,110
2016-08-30T12:48:50.914Z,110
2016-08-30T12:49:50.526Z,110
2016-08-30T12:50:50.527Z,110
2016-08-30T12:51:50.468Z,115
2016-08-30T12:52:50.464Z,115
2016-08-30T12:53:50.500Z,115
2016-08-30T12:54:51.166Z,115
2016-08-30T12:55:51.037Z,115
2016-08-30T12:56:50.497Z,110
2016-08-30T12:57:50.720Z,110
2016-08-30T12:58:50.515Z,110
2016-08-30T12:59:50.510Z,110
2016-08-30T13:00:50.517Z,115
2016-08-30T13:01:50.509Z,120
2016-08-30T13:02:50.530Z,115
2016-08-30T13:03:50.509Z,115
2016-08-30T13:04:50.586Z,115
2016-08-30T13:05:50.495Z,115
2016-08-30T13:06:50.529Z,115
2016-08-30T13:07:50.492Z,120
2016-08-30T13:08:50.498Z,120
2016-08-30T13:09:50.530Z,120
2016-08-30T13:10:50.568Z,120
2016-08-30T13:11:51.113Z,115
2016-08-30T13:12:50.499Z,115
2016-08-30T13:13:50.578Z,110
2016-08-30T13:14:50.481Z,110
2016-08-30T13:15:50.605Z,110
2016-08-30T13:16:51.980Z,110
2016-08-30T13:17:50.570Z,110
2016-08-30T13:18:50.561Z,110
2016-08-30T13:19:50.558Z,110
2016-08-30T13:20:50.536Z,110
2016-08-30T13:21:50.608Z,110
2016-08-30T13:22:50.643Z,115
2016-08-30T13:23:50.523Z,110
2016-08-30T13:24:50.554Z,115
2016-08-30T13:25:50.538Z,115
2016-08-30T13:26:50.592Z,115
2016-08-30T13:27:50.555Z,110
2016-08-30T13:28:50.543Z,110
2016-08-30T13:29:50.596Z,110
2016-08-30T13:30:50.576Z,110
2016-08-30T13:31:50.579Z,110
2016-08-30T13:32:50.603Z,110
2016-08-30T13:33:50.562Z,110
2016-08-30T13:34:50.528Z,110
2016-08-30T13:35:50.533Z,110
2016-08-30T13:36:50.526Z,110
2016-08-30T13:37:50.468Z,115
2016-08-30T13:38:50.469Z,115
2016-08-30T13:39:50.528Z,115
2016-08-30T13:40:50.546Z,115
2016-08-30T13:41:50.556Z,115
2016-08-30T13:42:50.497Z,115
2016-08-30T13:43:50.545Z,120
2016-08-30T13:44:50.527Z,115
2016-08-30T13:45:51.143Z,115
2016-08-30T13:46:50.530Z,115
2016-08-30T13:47:50.601Z,115
2016-08-30T13:48:50.514Z,115
2016-08-30T13:49:50.511Z,115
2016-08-30T13:50:50.510Z,115
2016-08-30T13:51:50.534Z,115
2016-08-30T13:52:50.483Z,115
2016-08-30T13:53:50.544Z,115
2016-08-30T13:54:51.317Z,115
2016-08-30T13:55:50.492Z,115
2016-08-30T13:56:51.662Z,115
2016-08-30T13:57:51.547Z,115
2016-08-30T13:58:51.150Z,115
2016-08-30T13:59:50.939Z,115
2016-08-30T14:00:51.609Z,115
2016-08-30T14:01:51.100Z,115
2016-08-30T14:02:51.181Z,115
2016-08-30T14:03:50.777Z,115
2016-08-30T14:04:51.922Z,115
2016-08-30T14:05:50.595Z,115
2016-08-30T14:06:50.907Z,115
2016-08-30T14:07:50.486Z,115
2016-08-30T14:08:50.557Z,115
2016-08-30T14:09:50.547Z,115
2016-08-30T14:10:50.566Z,115
2016-08-30T14:11:50.545Z,115
2016-08-30T14:12:52.166Z,115
2016-08-30T14:13:50.561Z,115
2016-08-30T14:14:51.007Z,115
2016-08-30T14:15:50.578Z,115
2016-08-30T14:16:50.747Z,115
2016-08-30T14:17:50.817Z,115
2016-08-30T14:18:51.005Z,115
2016-08-30T14:19:50.610Z,115